createdAt,value
2016-08-31T00:04:14.200Z,56.66
2016-08-31T00:09:11.045Z,56.47
2016-08-31T00:14:07.595Z,56.76
2016-08-31T00:19:04.159Z,56.09
2016-08-31T00:24:03.168Z,56.09
2016-08-31T00:28:59.252Z,56.66
2016-08-31T00:33:55.773Z,56.66
2016-08-31T00:38:52.201Z,56.57
2016-08-31T00:43:48.802Z,56.57
2016-08-31T00:48:45.275Z,56.66
2016-08-31T00:53:42.545Z,56.37
2016-08-31T00:58:39.153Z,56.35
2016-08-31T01:03:35.630Z,56.25
2016-08-31T01:08:32.588Z,56.37
2016-08-31T01:13:29.167Z,56.35
2016-08-31T01:18:25.699Z,56.25
2016-08-31T01:23:22.327Z,56.35
2016-08-31T01:28:18.937Z,56.35
2016-08-31T01:33:15.640Z,56.44
2016-08-31T01:38:12.230Z,56.60
2016-08-31T01:43:08.744Z,56.63
2016-08-31T01:48:05.578Z,57.02
2016-08-31T01:53:02.005Z,56.22
2016-08-31T01:57:58.622Z,56.60
2016-08-31T02:02:55.109Z,56.80
2016-08-31T02:07:51.730Z,56.80
2016-08-31T02:12:48.443Z,56.03
2016-08-31T02:17:44.933Z,57.09
2016-08-31T02:22:41.509Z,57.18
2016-08-31T02:27:38.729Z,56.70
2016-08-31T02:32:35.361Z,56.70
2016-08-31T02:37:31.902Z,57.18
2016-08-31T02:42:28.592Z,56.60
2016-08-31T02:47:25.117Z,56.90
2016-08-31T02:52:22.030Z,56.90
2016-08-31T02:57:18.642Z,56.58
2016-08-31T03:02:15.148Z,57.64
2016-08-31T03:07:11.723Z,57.06
2016-08-31T03:12:08.776Z,56.77
2016-08-31T03:17:05.629Z,57.25
2016-08-31T03:22:02.155Z,56.22
2016-08-31T03:26:58.659Z,56.51
2016-08-31T03:31:55.618Z,57.06
2016-08-31T03:36:52.308Z,56.58
2016-08-31T03:41:49.100Z,56.77
2016-08-31T03:46:45.822Z,56.77
2016-08-31T03:51:42.565Z,56.67
2016-08-31T03:56:39.113Z,56.67
2016-08-31T04:01:35.517Z,56.96
2016-08-31T04:06:32.457Z,56.77
2016-08-31T04:11:28.842Z,57.35
2016-08-31T04:16:25.281Z,56.67
2016-08-31T04:21:21.844Z,56.77
2016-08-31T04:26:18.329Z,57.64
2016-08-31T04:31:14.880Z,57.73
2016-08-31T04:36:11.795Z,57.54
2016-08-31T04:41:08.237Z,57.13
2016-08-31T04:46:04.706Z,57.13
2016-08-31T04:51:01.830Z,57.42
2016-08-31T04:55:58.176Z,57.42
2016-08-31T05:00:55.147Z,57.35
2016-08-31T05:05:51.958Z,57.35
2016-08-31T05:10:48.554Z,56.96
2016-08-31T05:15:45.174Z,57.25
2016-08-31T05:20:41.746Z,57.15
2016-08-31T05:25:38.281Z,56.58
2016-08-31T05:30:34.969Z,57.15
2016-08-31T05:35:31.662Z,56.87
2016-08-31T05:40:27.994Z,56.67
2016-08-31T05:45:24.578Z,57.25
2016-08-31T05:50:21.365Z,57.54
2016-08-31T05:55:18.232Z,56.87
2016-08-31T06:00:15.915Z,57.35
2016-08-31T06:05:12.882Z,57.09
2016-08-31T06:10:09.748Z,56.80
2016-08-31T06:15:06.581Z,56.41
2016-08-31T06:20:05.746Z,55.26
2016-08-31T06:25:02.773Z,55.55
2016-08-31T06:29:59.201Z,55.55
2016-08-31T06:34:56.902Z,54.22
2016-08-31T06:39:53.255Z,54.61
2016-08-31T06:44:50.024Z,54.42
2016-08-31T06:49:46.727Z,54.13
2016-08-31T06:54:43.506Z,54.42
2016-08-31T06:59:40.097Z,54.22
2016-08-31T07:04:36.746Z,54.42
2016-08-31T07:09:33.400Z,54.16
2016-08-31T07:14:30.185Z,54.25
2016-08-31T07:19:27.013Z,54.54
2016-08-31T07:24:24.003Z,53.39
2016-08-31T07:29:20.641Z,54.13
2016-08-31T07:34:20.114Z,54.35
2016-08-31T07:39:16.260Z,53.96
2016-08-31T07:44:14.096Z,53.77
2016-08-31T07:49:10.524Z,53.51
2016-08-31T07:54:08.705Z,53.13
2016-08-31T07:59:05.497Z,52.28
2016-08-31T08:04:02.528Z,51.70
2016-08-31T08:09:00.086Z,50.59
2016-08-31T08:13:57.275Z,48.69
2016-08-31T08:18:54.986Z,47.45
2016-08-31T08:23:52.487Z,45.93
2016-08-31T08:28:49.722Z,45.47
2016-08-31T08:33:46.727Z,45.20
2016-08-31T08:43:44.396Z,42.00
2016-08-31T08:48:41.074Z,43.00
2016-08-31T08:53:40.608Z,42.80
2016-08-31T08:58:36.442Z,42.71
2016-08-31T09:03:32.645Z,42.41
2016-08-31T09:08:28.821Z,43.77
2016-08-31T09:13:25.149Z,43.65
2016-08-31T09:18:21.520Z,43.46
2016-08-31T09:23:17.940Z,44.43
2016-08-31T09:28:14.832Z,43.65
2016-08-31T09:33:11.201Z,44.23
2016-08-31T09:38:07.987Z,44.21
2016-08-31T09:43:04.985Z,42.86
2016-08-31T09:48:01.596Z,44.21
2016-08-31T09:52:58.406Z,44.31
2016-08-31T09:57:55.061Z,43.44
2016-08-31T10:02:51.689Z,43.99
2016-08-31T10:07:48.305Z,43.71
2016-08-31T10:12:44.980Z,45.54
2016-08-31T10:17:41.545Z,44.29
2016-08-31T10:22:38.239Z,44.19
2016-08-31T10:27:35.114Z,44.48
2016-08-31T10:32:31.845Z,45.16
2016-08-31T10:37:28.678Z,45.06
2016-08-31T10:42:25.569Z,45.45
2016-08-31T10:47:22.036Z,45.16
2016-08-31T10:52:18.699Z,42.74
2016-08-31T10:57:15.609Z,44.38
2016-08-31T11:02:12.738Z,45.64
2016-08-31T11:07:09.415Z,45.74
2016-08-31T11:12:06.111Z,45.83
2016-08-31T11:17:02.702Z,45.06
2016-08-31T11:21:59.704Z,46.12
2016-08-31T11:26:56.327Z,45.28
2016-08-31T11:31:52.910Z,45.86
2016-08-31T11:36:52.229Z,44.31
2016-08-31T11:41:48.217Z,42.18
2016-08-31T11:46:44.787Z,42.86
2016-08-31T11:51:42.430Z,44.70
2016-08-31T11:56:39.052Z,44.98
2016-08-31T12:01:35.727Z,44.98
2016-08-31T12:06:32.393Z,44.02
2016-08-31T12:11:29.013Z,44.31
2016-08-31T12:16:26.042Z,44.79
2016-08-31T12:21:22.719Z,45.18
2016-08-31T12:26:19.465Z,45.18
2016-08-31T12:31:16.204Z,45.20
2016-08-31T12:36:13.852Z,44.53
2016-08-31T12:41:10.219Z,45.95
2016-08-31T12:46:08.083Z,45.37
2016-08-31T12:51:06.899Z,44.33
2016-08-31T12:56:03.071Z,45.30
2016-08-31T13:00:59.710Z,45.59
2016-08-31T13:05:58.949Z,45.95
2016-08-31T13:10:54.760Z,45.86
2016-08-31T13:15:51.996Z,46.25
2016-08-31T13:20:49.094Z,46.44
2016-08-31T13:25:45.661Z,46.34
2016-08-31T13:30:42.559Z,46.25
2016-08-31T13:35:39.216Z,46.84
2016-08-31T13:40:36.871Z,46.08
2016-08-31T13:45:33.290Z,45.98
2016-08-31T13:50:30.004Z,46.94
2016-08-31T13:55:27.408Z,46.73
2016-08-31T14:00:24.390Z,46.05
2016-08-31T14:05:21.116Z,45.68
2016-08-31T14:10:18.033Z,46.56
2016-08-31T14:15:14.486Z,46.66
2016-08-31T14:20:12.332Z,46.83
2016-08-31T14:25:08.819Z,47.43
2016-08-31T14:30:05.267Z,47.72
2016-08-31T14:35:02.279Z,48.11
2016-08-31T14:39:58.939Z,47.72
2016-08-31T14:44:55.997Z,46.56
2016-08-31T14:49:52.667Z,47.24
2016-08-31T14:54:49.217Z,44.06
2016-08-31T14:59:46.172Z,44.54
2016-08-31T15:04:45.832Z,41.83
2016-08-31T15:09:41.838Z,41.97
2016-08-31T15:14:38.359Z,39.92
2016-08-31T15:19:35.006Z,40.59
2016-08-31T15:24:31.624Z,41.56
2016-08-31T15:29:28.318Z,43.68
2016-08-31T15:34:24.933Z,42.41
2016-08-31T15:39:21.714Z,43.68
2016-08-31T15:44:18.430Z,46.19
2016-08-31T15:49:15.270Z,42.41
2016-08-31T15:54:14.416Z,42.41
2016-08-31T15:59:10.559Z,41.45
2016-08-31T16:04:07.293Z,42.61
2016-08-31T16:09:04.003Z,44.54
2016-08-31T16:14:01.155Z,43.58
2016-08-31T16:18:59.003Z,41.74
2016-08-31T16:23:55.348Z,43.58
2016-08-31T16:28:52.019Z,41.74
2016-08-31T16:33:51.135Z,43.68
2016-08-31T16:38:47.146Z,43.65
2016-08-31T16:43:43.756Z,44.64
2016-08-31T16:48:40.399Z,45.01
2016-08-31T16:53:37.062Z,45.30
2016-08-31T16:58:33.648Z,47.04
2016-08-31T17:03:30.326Z,45.30
2016-08-31T17:08:27.067Z,45.10
2016-08-31T17:13:23.678Z,46.08
2016-08-31T17:18:20.471Z,46.94
2016-08-31T17:23:17.579Z,46.84
2016-08-31T17:28:14.244Z,46.08
2016-08-31T17:33:10.901Z,46.66
2016-08-31T17:38:07.391Z,46.63
2016-08-31T17:43:04.011Z,46.92
2016-08-31T17:48:00.767Z,47.31
2016-08-31T17:52:57.572Z,47.79
2016-08-31T17:57:54.145Z,49.05
2016-08-31T18:02:53.449Z,48.64
2016-08-31T18:07:49.517Z,49.22
2016-08-31T18:12:48.505Z,50.18
2016-08-31T18:17:44.873Z,50.67
2016-08-31T18:22:41.426Z,50.38
2016-08-31T18:27:37.900Z,50.16
2016-08-31T18:32:34.440Z,50.65
2016-08-31T18:37:31.125Z,51.03
2016-08-31T18:42:28.188Z,51.61
2016-08-31T18:47:24.771Z,52.19
2016-08-31T18:52:21.447Z,52.09
2016-08-31T18:57:18.531Z,52.39
2016-08-31T19:02:15.486Z,52.58
2016-08-31T19:07:13.599Z,52.87
2016-08-31T19:12:09.670Z,53.55
2016-08-31T19:17:06.267Z,53.71
2016-08-31T19:22:03.432Z,53.91
2016-08-31T19:27:00.146Z,54.19
2016-08-31T19:31:56.842Z,54.29
2016-08-31T19:36:53.336Z,54.68
2016-08-31T19:41:52.546Z,54.58
2016-08-31T19:46:48.579Z,54.58
2016-08-31T19:51:47.760Z,55.55
2016-08-31T19:56:44.022Z,55.45
2016-08-31T20:01:40.635Z,55.55
2016-08-31T20:06:37.196Z,55.55
2016-08-31T20:11:34.740Z,55.83
2016-08-31T20:16:31.305Z,56.80
2016-08-31T20:21:29.363Z,59.89
2016-08-31T20:26:25.515Z,59.70
2016-08-31T20:31:23.675Z,62.60
2016-08-31T20:36:20.292Z,60.57
2016-08-31T20:41:18.303Z,61.54
2016-08-31T20:46:14.635Z,62.02
2016-08-31T20:51:11.203Z,62.08
2016-08-31T20:56:07.789Z,63.24
2016-08-31T21:01:04.545Z,64.11
2016-08-31T21:06:01.177Z,63.53
2016-08-31T21:10:57.641Z,63.82
2016-08-31T21:15:54.262Z,64.40
2016-08-31T21:20:50.878Z,65.47
2016-08-31T21:25:47.507Z,65.47
2016-08-31T21:30:44.163Z,64.01
2016-08-31T21:35:41.145Z,64.18
2016-08-31T21:40:37.871Z,63.89
2016-08-31T21:45:34.457Z,63.21
2016-08-31T21:50:30.972Z,63.40
2016-08-31T21:55:27.431Z,62.89
2016-08-31T22:00:24.069Z,63.28
2016-08-31T22:05:20.806Z,63.67
2016-08-31T22:10:17.396Z,63.37
2016-08-31T22:15:13.929Z,62.99
2016-08-31T22:20:10.833Z,62.60
2016-08-31T22:25:07.797Z,62.79
2016-08-31T22:30:04.664Z,62.70
2016-08-31T22:35:01.255Z,62.89
2016-08-31T22:39:57.869Z,62.51
2016-08-31T22:44:54.494Z,62.60
2016-08-31T22:49:51.395Z,62.41
2016-08-31T22:54:48.043Z,62.99
2016-08-31T22:59:44.605Z,62.60
2016-08-31T23:04:41.572Z,62.51
2016-08-31T23:09:39.446Z,62.51
2016-08-31T23:14:36.083Z,62.99
2016-08-31T23:19:34.956Z,62.76
2016-08-31T23:24:30.833Z,63.15
2016-08-31T23:29:27.475Z,62.38
2016-08-31T23:34:23.961Z,62.48
2016-08-31T23:39:20.631Z,62.48
2016-08-31T23:44:19.507Z,62.96
2016-08-31T23:49:15.589Z,62.86
2016-08-31T23:54:12.074Z,63.34
2016-08-31T23:59:08.690Z,63.44
